createdAt,value
2023-05-09T00:00:00.214Z,12.60
2023-05-09T00:01:00.136Z,12.62
2023-05-09T00:02:00.281Z,12.59
2023-05-09T00:03:00.308Z,12.56
2023-05-09T00:04:00.160Z,12.52
2023-05-09T00:05:00.085Z,12.49
2023-05-09T00:06:00.113Z,12.48
2023-05-09T00:07:00.089Z,12.44
2023-05-09T00:08:00.129Z,12.44
2023-05-09T00:09:00.039Z,12.44
2023-05-09T00:10:00.050Z,12.42
2023-05-09T00:11:00.048Z,12.46
2023-05-09T00:12:00.070Z,12.49
2023-05-09T00:13:00.057Z,12.48
2023-05-09T00:14:00.006Z,12.46
2023-05-09T00:14:59.980Z,12.46
2023-05-09T00:15:59.971Z,12.49
2023-05-09T00:16:59.948Z,12.51
2023-05-09T00:18:07.706Z,12.51
2023-05-09T00:18:59.917Z,12.48
2023-05-09T00:19:59.905Z,12.48
2023-05-09T00:20:59.896Z,12.49
2023-05-09T00:21:59.885Z,12.46
2023-05-09T00:22:59.889Z,12.44
2023-05-09T00:23:59.861Z,12.41
2023-05-09T00:24:59.855Z,12.44
2023-05-09T00:25:59.847Z,12.45
2023-05-09T00:26:59.828Z,12.48
2023-05-09T00:27:59.876Z,12.48
2023-05-09T00:28:59.809Z,12.49
2023-05-09T00:29:59.796Z,12.48
2023-05-09T00:30:59.791Z,12.46
2023-05-09T00:31:59.857Z,12.48
2023-05-09T00:32:59.805Z,12.45
2023-05-09T00:33:59.745Z,12.44
2023-05-09T00:34:59.747Z,12.42
2023-05-09T00:35:59.755Z,12.41
2023-05-09T00:36:59.716Z,12.39
2023-05-09T00:37:59.713Z,12.34
2023-05-09T00:38:59.688Z,12.33
2023-05-09T00:39:59.684Z,12.33
2023-05-09T00:40:59.679Z,12.31
2023-05-09T00:41:59.666Z,12.26
2023-05-09T00:42:59.663Z,12.26
2023-05-09T00:43:59.637Z,12.26
2023-05-09T00:44:59.621Z,12.23
2023-05-09T00:45:59.636Z,12.24
2023-05-09T00:46:59.624Z,12.24
2023-05-09T00:47:59.702Z,12.24
2023-05-09T00:48:59.580Z,12.24
2023-05-09T00:49:59.563Z,12.21
2023-05-09T00:50:59.565Z,12.23
2023-05-09T00:51:59.542Z,12.26
2023-05-09T00:52:59.537Z,12.24
2023-05-09T00:53:59.544Z,12.27
2023-05-09T00:54:59.523Z,12.27
2023-05-09T00:55:59.498Z,12.27
2023-05-09T00:56:59.483Z,12.23
2023-05-09T00:57:59.486Z,12.23
2023-05-09T00:58:59.473Z,12.30
2023-05-09T00:59:59.460Z,12.38
2023-05-09T01:00:59.474Z,12.41
2023-05-09T01:01:59.449Z,12.41
2023-05-09T01:02:59.526Z,12.41
2023-05-09T01:03:59.426Z,12.39
2023-05-09T01:04:59.400Z,12.38
2023-05-09T01:05:59.395Z,12.34
2023-05-09T01:06:59.375Z,12.29
2023-05-09T01:07:59.370Z,12.26
2023-05-09T01:08:59.366Z,12.23
2023-05-09T01:09:59.343Z,12.19
2023-05-09T01:10:59.332Z,12.15
2023-05-09T01:11:59.326Z,12.12
2023-05-09T01:12:59.361Z,12.09
2023-05-09T01:13:59.314Z,12.04
2023-05-09T01:14:59.302Z,12.04
2023-05-09T01:15:59.310Z,12.04
2023-05-09T01:16:59.273Z,12.02
2023-05-09T01:17:59.317Z,11.99
2023-05-09T01:18:59.268Z,11.96
2023-05-09T01:19:59.238Z,11.96
2023-05-09T01:20:59.226Z,11.94
2023-05-09T01:21:59.214Z,11.87
2023-05-09T01:22:59.196Z,11.90
2023-05-09T01:23:59.203Z,11.90
2023-05-09T01:24:59.174Z,11.90
2023-05-09T01:25:59.175Z,11.93
2023-05-09T01:26:59.165Z,11.87
2023-05-09T01:27:59.153Z,11.87
2023-05-09T01:28:59.158Z,11.86
2023-05-09T01:29:59.126Z,11.85
2023-05-09T01:30:59.151Z,11.83
2023-05-09T01:31:59.127Z,11.82
2023-05-09T01:32:59.111Z,11.78
2023-05-09T01:33:59.110Z,11.78
2023-05-09T01:34:59.070Z,11.75
2023-05-09T01:35:59.063Z,11.75
2023-05-09T01:36:59.050Z,11.75
2023-05-09T01:37:59.042Z,11.75
2023-05-09T01:38:59.041Z,11.74
2023-05-09T01:39:59.037Z,11.72
2023-05-09T01:40:59.010Z,11.68
2023-05-09T01:41:58.998Z,11.68
2023-05-09T01:42:58.976Z,11.65
2023-05-09T01:43:59.015Z,11.64
2023-05-09T01:44:58.958Z,11.62
2023-05-09T01:45:58.954Z,11.62
2023-05-09T01:46:58.996Z,11.62
2023-05-09T01:47:59.031Z,11.61
2023-05-09T01:48:58.928Z,11.65
2023-05-09T01:49:58.905Z,11.70
2023-05-09T01:50:58.901Z,11.67
2023-05-09T01:51:58.879Z,11.67
2023-05-09T01:52:58.875Z,11.65
2023-05-09T01:53:58.874Z,11.65
2023-05-09T01:54:58.849Z,11.65
2023-05-09T01:55:58.833Z,11.61
2023-05-09T01:56:58.834Z,11.56
2023-05-09T01:57:58.835Z,11.54
2023-05-09T01:58:58.831Z,11.52
2023-05-09T01:59:58.796Z,11.52
2023-05-09T02:00:58.820Z,11.50
2023-05-09T02:01:58.835Z,11.47
2023-05-09T02:02:58.872Z,11.47
2023-05-09T02:03:58.773Z,11.46
2023-05-09T02:04:58.742Z,11.46
2023-05-09T02:05:58.734Z,11.44
2023-05-09T02:06:58.718Z,11.44
2023-05-09T02:07:58.706Z,11.46
2023-05-09T02:08:58.714Z,11.50
2023-05-09T02:09:58.689Z,11.49
2023-05-09T02:10:58.684Z,11.47
2023-05-09T02:11:58.665Z,11.47
2023-05-09T02:12:58.725Z,11.46
2023-05-09T02:13:58.655Z,11.44
2023-05-09T02:14:58.638Z,11.47
2023-05-09T02:15:58.628Z,11.49
2023-05-09T02:16:58.689Z,11.50
2023-05-09T02:17:58.680Z,11.53
2023-05-09T02:18:58.606Z,11.53
2023-05-09T02:19:58.589Z,11.53
2023-05-09T02:20:58.621Z,11.52
2023-05-09T02:21:58.561Z,11.49
2023-05-09T02:22:58.551Z,11.46
2023-05-09T02:23:58.562Z,11.39
2023-05-09T02:24:58.538Z,11.36
2023-05-09T02:25:58.561Z,11.35
2023-05-09T02:26:58.521Z,11.34
2023-05-09T02:27:58.494Z,11.31
2023-05-09T02:28:58.511Z,11.28
2023-05-09T02:29:58.476Z,11.25
2023-05-09T02:30:58.453Z,11.25
2023-05-09T02:31:58.523Z,11.20
2023-05-09T02:32:58.500Z,11.20
2023-05-09T02:33:58.466Z,11.25
2023-05-09T02:34:58.434Z,11.24
2023-05-09T02:35:58.401Z,11.24
2023-05-09T02:36:58.413Z,11.20
2023-05-09T02:37:58.397Z,11.20
2023-05-09T02:38:58.386Z,11.21
2023-05-09T02:39:58.355Z,11.21
2023-05-09T02:40:58.344Z,11.21
2023-05-09T02:41:58.341Z,11.21
2023-05-09T02:44:09.896Z,11.32
2023-05-09T02:45:10.867Z,11.31
2023-05-09T02:46:11.029Z,11.32
2023-05-09T02:47:10.856Z,11.32
2023-05-09T02:48:10.872Z,11.38
2023-05-09T02:49:16.790Z,11.49
2023-05-09T02:50:10.830Z,11.54
2023-05-09T02:51:10.815Z,11.57
2023-05-09T02:52:10.805Z,11.61
2023-05-09T02:53:10.790Z,11.59
2023-05-09T02:54:10.802Z,11.59
2023-05-09T02:55:10.787Z,11.56
2023-05-09T02:56:10.751Z,11.53
2023-05-09T02:57:10.739Z,11.44
2023-05-09T02:58:14.820Z,11.43
2023-05-09T02:59:10.740Z,11.39
2023-05-09T03:00:10.725Z,11.36
2023-05-09T03:01:10.741Z,11.27
2023-05-09T03:02:10.678Z,11.24
2023-05-09T03:03:10.810Z,11.24
2023-05-09T03:04:10.690Z,11.21
2023-05-09T03:05:10.660Z,11.19
2023-05-09T03:06:10.674Z,11.17
2023-05-09T03:07:10.627Z,11.14
2023-05-09T03:08:10.623Z,11.13
2023-05-09T03:09:10.632Z,11.07
2023-05-09T03:10:10.598Z,11.07
2023-05-09T03:11:10.582Z,11.01
2023-05-09T03:12:10.585Z,10.95
2023-05-09T03:13:10.593Z,10.92
2023-05-09T03:14:10.562Z,10.88
2023-05-09T03:15:10.544Z,10.83
2023-05-09T03:16:10.642Z,10.81
2023-05-09T03:17:10.526Z,10.83
2023-05-09T03:18:10.552Z,10.83
2023-05-09T03:19:10.508Z,10.84
2023-05-09T03:20:10.498Z,10.83
2023-05-09T03:21:10.476Z,10.80
2023-05-09T03:22:10.456Z,10.80
2023-05-09T03:23:10.453Z,10.76
2023-05-09T03:24:10.525Z,10.76
2023-05-09T03:25:10.445Z,10.73
2023-05-09T03:26:10.426Z,10.73
2023-05-09T03:29:49.199Z,10.71
2023-05-09T03:30:35.537Z,10.70
2023-05-09T03:31:36.169Z,10.68
2023-05-09T03:32:35.572Z,10.71
2023-05-09T03:33:35.501Z,10.68
2023-05-09T03:34:35.528Z,10.66
2023-05-09T03:35:35.487Z,10.66
2023-05-09T03:36:35.474Z,10.73
2023-05-09T03:37:35.463Z,10.76
2023-05-09T03:38:35.452Z,10.80
2023-05-09T03:39:35.451Z,10.78
2023-05-09T03:40:35.424Z,10.80
2023-05-09T03:41:35.416Z,10.77
2023-05-09T03:42:35.419Z,10.73
2023-05-09T03:43:35.384Z,10.71
2023-05-09T03:44:35.404Z,10.68
2023-05-09T03:45:35.369Z,10.66
2023-05-09T03:46:35.481Z,10.68
2023-05-09T03:47:35.395Z,10.68
2023-05-09T03:48:35.330Z,10.68
2023-05-09T03:49:35.364Z,10.68
2023-05-09T03:50:35.303Z,10.68
2023-05-09T03:51:35.316Z,10.73
2023-05-09T03:52:35.369Z,10.77
2023-05-09T03:53:35.309Z,10.77
2023-05-09T03:54:35.311Z,10.77
2023-05-09T03:55:35.260Z,10.78
2023-05-09T03:56:35.252Z,10.76
2023-05-09T03:57:35.250Z,10.78
2023-05-09T03:58:35.234Z,10.78
2023-05-09T03:59:35.240Z,10.84
2023-05-09T04:00:35.197Z,10.89
2023-05-09T04:01:35.259Z,10.94
2023-05-09T04:02:35.299Z,10.95
2023-05-09T04:03:35.235Z,10.96
2023-05-09T04:04:35.178Z,10.99
2023-05-09T04:05:35.702Z,11.01
2023-05-09T04:06:35.144Z,11.03
2023-05-09T04:07:35.124Z,11.06
2023-05-09T04:08:35.124Z,11.07
2023-05-09T04:09:35.120Z,11.06
2023-05-09T04:10:35.093Z,11.07
2023-05-09T04:11:35.082Z,11.02
2023-05-09T04:12:35.070Z,11.02
2023-05-09T04:13:35.082Z,11.02
2023-05-09T04:14:35.064Z,11.01
2023-05-09T04:15:35.033Z,11.02
2023-05-09T04:16:35.049Z,10.99
2023-05-09T04:17:35.040Z,11.01
2023-05-09T04:18:35.006Z,11.01
2023-05-09T04:19:35.004Z,10.99
2023-05-09T04:20:34.979Z,11.01
2023-05-09T04:21:34.995Z,11.01
2023-05-09T04:22:34.957Z,11.02
2023-05-09T04:23:34.938Z,11.07
2023-05-09T04:24:34.953Z,11.11
2023-05-09T04:25:34.922Z,11.13
2023-05-09T04:26:34.908Z,11.16
2023-05-09T04:27:34.911Z,11.17
2023-05-09T04:28:34.894Z,11.13
2023-05-09T04:29:34.876Z,11.14
2023-05-09T04:30:34.913Z,11.14
2023-05-09T04:31:34.935Z,11.14
2023-05-09T04:32:34.898Z,11.16
2023-05-09T04:33:34.838Z,11.16
2023-05-09T04:34:34.839Z,11.13
2023-05-09T04:35:34.832Z,11.13
2023-05-09T04:36:34.794Z,11.07
2023-05-09T04:37:34.796Z,11.07
2023-05-09T04:38:34.783Z,11.07
2023-05-09T04:39:34.762Z,11.07
2023-05-09T04:40:34.772Z,11.09
2023-05-09T04:41:34.744Z,11.11
2023-05-09T04:42:34.737Z,11.13
2023-05-09T04:43:34.719Z,11.14
2023-05-09T04:44:34.703Z,11.16
2023-05-09T04:45:34.727Z,11.16
2023-05-09T04:46:34.723Z,11.17
2023-05-09T04:47:34.699Z,11.20
2023-05-09T04:48:34.663Z,11.27
2023-05-09T04:49:34.658Z,11.27
2023-05-09T04:50:34.676Z,11.27
2023-05-09T04:51:34.642Z,11.28
2023-05-09T04:52:34.623Z,11.29
2023-05-09T04:53:34.607Z,11.31
2023-05-09T04:54:34.611Z,11.32
2023-05-09T04:55:34.605Z,11.29
2023-05-09T04:56:34.591Z,11.28
2023-05-09T04:57:34.561Z,11.32
2023-05-09T04:58:34.568Z,11.29
2023-05-09T04:59:34.545Z,11.32
2023-05-09T05:00:34.553Z,11.32
2023-05-09T05:01:34.586Z,11.38
2023-05-09T05:02:34.557Z,11.44
2023-05-09T05:03:34.498Z,11.50
2023-05-09T05:04:34.534Z,11.57
2023-05-09T05:05:37.012Z,11.65
2023-05-09T05:06:34.470Z,11.68
2023-05-09T05:07:34.463Z,11.70
2023-05-09T05:08:34.456Z,11.75
2023-05-09T05:09:34.439Z,11.80
2023-05-09T05:10:34.447Z,11.85
2023-05-09T05:11:34.446Z,11.86
2023-05-09T05:12:34.420Z,11.89
2023-05-09T05:13:34.391Z,11.94
2023-05-09T05:14:34.389Z,11.94
2023-05-09T05:15:34.385Z,11.99
2023-05-09T05:16:34.409Z,12.05
2023-05-09T05:17:34.377Z,12.05
2023-05-09T05:18:34.342Z,11.99
2023-05-09T05:19:34.338Z,12.01
2023-05-09T05:20:34.335Z,12.02
2023-05-09T05:21:34.308Z,12.01
2023-05-09T05:22:34.324Z,12.01
2023-05-09T05:23:34.294Z,12.01
2023-05-09T05:24:34.277Z,11.99
2023-05-09T05:25:34.276Z,12.02
2023-05-09T05:26:34.256Z,12.06
2023-05-09T05:27:34.251Z,12.05
2023-05-09T05:28:34.245Z,12.08
2023-05-09T05:29:34.224Z,12.13
2023-05-09T05:30:34.592Z,12.16
2023-05-09T05:31:34.252Z,12.21
2023-05-09T05:32:34.199Z,12.21
2023-05-09T05:33:34.177Z,12.21
2023-05-09T05:34:34.166Z,12.19
2023-05-09T05:35:34.180Z,12.19
2023-05-09T05:36:34.150Z,12.16
2023-05-09T05:37:34.292Z,12.19
2023-05-09T05:38:34.119Z,12.26
2023-05-09T05:39:34.132Z,12.33
2023-05-09T05:40:34.112Z,12.34
2023-05-09T05:41:34.098Z,12.39
2023-05-09T05:42:34.073Z,12.41
2023-05-09T05:43:34.066Z,12.44
2023-05-09T05:44:34.046Z,12.46
2023-05-09T05:45:34.075Z,12.51
2023-05-09T05:46:34.022Z,12.57
2023-05-09T05:47:34.043Z,12.52
2023-05-09T05:48:34.010Z,12.57
2023-05-09T05:49:33.989Z,12.62
2023-05-09T05:50:34.004Z,12.64
2023-05-09T05:51:33.967Z,12.67
2023-05-09T05:52:33.957Z,12.71
2023-05-09T05:53:33.942Z,12.70
2023-05-09T05:54:33.938Z,12.71
2023-05-09T05:55:33.928Z,12.75
2023-05-09T05:56:33.960Z,12.78
2023-05-09T05:57:33.899Z,12.82
2023-05-09T05:58:33.890Z,12.88
2023-05-09T05:59:33.866Z,12.95
2023-05-09T06:00:33.877Z,12.97
2023-05-09T06:01:33.851Z,13.00
2023-05-09T06:02:33.942Z,13.06
2023-05-09T06:03:33.879Z,13.07
2023-05-09T06:04:33.813Z,13.09
2023-05-09T06:05:33.818Z,13.14
2023-05-09T06:06:33.797Z,13.17
2023-05-09T06:07:33.792Z,13.18
2023-05-09T06:08:33.763Z,13.18
2023-05-09T06:09:33.755Z,13.22
2023-05-09T06:10:33.762Z,13.27
2023-05-09T06:11:33.743Z,13.30
2023-05-09T06:12:33.728Z,13.27
2023-05-09T06:13:33.719Z,13.30
2023-05-09T06:14:33.696Z,13.30
2023-05-09T06:15:33.713Z,13.33
2023-05-09T06:16:33.743Z,13.32
2023-05-09T06:17:33.746Z,13.32
2023-05-09T06:18:33.657Z,13.38
2023-05-09T06:19:33.649Z,13.46
2023-05-09T06:20:33.653Z,13.56
2023-05-09T06:21:33.623Z,13.59
2023-05-09T06:22:33.617Z,13.65
2023-05-09T06:23:33.611Z,13.70
2023-05-09T06:24:36.155Z,13.76
2023-05-09T06:25:33.625Z,13.79
2023-05-09T06:26:33.569Z,13.84
2023-05-09T06:27:33.554Z,13.87
2023-05-09T06:28:33.547Z,13.91
2023-05-09T06:29:33.537Z,13.96
2023-05-09T06:30:33.579Z,14.02
2023-05-09T06:31:33.593Z,14.09
2023-05-09T06:32:33.540Z,14.13
2023-05-09T06:33:33.488Z,14.19
2023-05-09T06:34:33.484Z,14.25
2023-05-09T06:35:33.482Z,14.34
2023-05-09T06:36:33.470Z,14.44
2023-05-09T06:37:33.447Z,14.52
2023-05-09T06:38:33.441Z,14.64
2023-05-09T06:39:33.431Z,14.72
2023-05-09T06:40:33.434Z,14.75
2023-05-09T06:41:33.449Z,14.81
2023-05-09T06:42:33.411Z,14.88
2023-05-09T06:43:33.395Z,14.98
2023-05-09T06:44:33.380Z,15.03
2023-05-09T06:45:33.446Z,14.99
2023-05-09T06:46:33.405Z,14.99
2023-05-09T06:47:33.397Z,15.02
2023-05-09T06:48:33.333Z,15.08
2023-05-09T06:49:33.325Z,15.13
2023-05-09T06:50:33.332Z,15.21
2023-05-09T06:51:34.241Z,15.27
2023-05-09T06:52:33.291Z,15.31
2023-05-09T06:53:33.278Z,15.33
2023-05-09T06:54:33.269Z,15.35
2023-05-09T06:55:33.274Z,15.35
2023-05-09T06:56:33.252Z,15.39
2023-05-09T06:57:33.240Z,15.41
2023-05-09T06:58:33.214Z,15.38
2023-05-09T06:59:33.214Z,15.43
2023-05-09T07:00:33.212Z,15.46
2023-05-09T07:01:33.217Z,15.48
2023-05-09T07:02:33.218Z,15.56
2023-05-09T07:03:33.161Z,15.60
2023-05-09T07:04:33.165Z,15.63
2023-05-09T07:05:33.235Z,15.68
2023-05-09T07:06:33.141Z,15.78
2023-05-09T07:07:33.120Z,15.85
2023-05-09T07:08:33.103Z,15.88
2023-05-09T07:09:33.094Z,15.92
2023-05-09T07:10:33.110Z,15.99
2023-05-09T07:11:33.076Z,16.07
2023-05-09T07:12:33.060Z,16.18
2023-05-09T07:13:33.054Z,16.27
2023-05-09T07:14:33.068Z,16.35
2023-05-09T07:15:41.125Z,16.44
2023-05-09T07:16:36.703Z,16.42
2023-05-09T07:17:34.065Z,16.45
2023-05-09T07:18:33.000Z,16.53
2023-05-09T07:19:37.018Z,16.59
2023-05-09T07:20:35.019Z,16.65
2023-05-09T07:21:33.013Z,16.71
2023-05-09T07:22:34.804Z,16.75
2023-05-09T07:23:32.956Z,16.80
2023-05-09T07:24:32.977Z,16.81
2023-05-09T07:25:32.939Z,16.90
2023-05-09T07:26:32.924Z,17.00
2023-05-09T07:27:32.905Z,17.06
2023-05-09T07:28:32.892Z,17.15
2023-05-09T07:29:32.894Z,17.26
2023-05-09T07:30:32.886Z,17.32
2023-05-09T07:31:35.215Z,17.29
2023-05-09T07:32:32.893Z,17.38
2023-05-09T07:33:32.847Z,17.40
2023-05-09T07:34:32.831Z,17.40
2023-05-09T07:35:32.825Z,17.41
2023-05-09T07:36:35.335Z,17.48
2023-05-09T07:37:32.787Z,17.55
2023-05-09T07:38:32.774Z,17.62
2023-05-09T07:39:32.781Z,17.64
2023-05-09T07:40:32.772Z,17.69
2023-05-09T07:41:32.744Z,17.79
2023-05-09T07:42:32.733Z,17.85
2023-05-09T07:43:32.717Z,17.85
2023-05-09T07:44:32.713Z,17.84
2023-05-09T07:45:32.755Z,17.82
2023-05-09T07:46:32.680Z,17.84
2023-05-09T07:47:32.684Z,17.79
2023-05-09T07:48:32.669Z,17.76
2023-05-09T07:49:32.649Z,17.78
2023-05-09T07:50:32.652Z,17.84
2023-05-09T07:51:32.627Z,17.89
2023-05-09T07:52:32.639Z,17.94
2023-05-09T07:53:32.625Z,17.95
2023-05-09T07:54:32.596Z,17.95
2023-05-09T07:55:32.585Z,17.92
2023-05-09T07:56:32.572Z,17.91
2023-05-09T07:57:32.552Z,17.95
2023-05-09T07:58:32.545Z,18.00
2023-05-09T07:59:32.540Z,18.06
2023-05-09T08:00:32.530Z,18.09
2023-05-09T08:01:32.558Z,18.09
2023-05-09T08:02:32.586Z,18.07
2023-05-09T08:03:32.587Z,18.07
2023-05-09T08:04:32.514Z,18.04
2023-05-09T08:05:32.485Z,17.97
2023-05-09T08:06:32.452Z,17.91
2023-05-09T08:07:32.450Z,17.85
2023-05-09T08:08:32.429Z,17.91
2023-05-09T08:09:32.425Z,17.97
2023-05-09T08:10:32.431Z,18.00
2023-05-09T08:11:32.391Z,18.02
2023-05-09T08:12:32.384Z,18.07
2023-05-09T08:13:32.457Z,18.13
2023-05-09T08:14:32.360Z,18.18
2023-05-09T08:15:32.371Z,18.17
2023-05-09T08:16:32.594Z,18.19
2023-05-09T08:17:32.365Z,18.24
2023-05-09T08:18:32.328Z,18.27
2023-05-09T08:19:32.311Z,18.33
2023-05-09T08:20:32.320Z,18.34
2023-05-09T08:21:32.293Z,18.34
2023-05-09T08:22:32.286Z,18.40
2023-05-09T08:23:32.272Z,18.52
2023-05-09T08:24:32.283Z,18.59
2023-05-09T08:25:32.376Z,18.68
2023-05-09T08:26:32.233Z,18.79
2023-05-09T08:27:32.240Z,18.94
2023-05-09T08:28:32.214Z,19.08
2023-05-09T08:29:32.249Z,19.21
2023-05-09T08:30:32.204Z,19.32
2023-05-09T08:31:32.254Z,19.36
2023-05-09T08:32:32.193Z,19.40
2023-05-09T08:33:32.157Z,19.47
2023-05-09T08:34:32.143Z,19.48
2023-05-09T08:35:32.154Z,19.40
2023-05-09T08:36:32.129Z,19.36
2023-05-09T08:37:32.131Z,19.32
2023-05-09T08:38:32.118Z,19.25
2023-05-09T08:39:32.094Z,19.18
2023-05-09T08:40:32.095Z,19.20
2023-05-09T08:41:32.071Z,19.17
2023-05-09T08:42:32.059Z,19.05
2023-05-09T08:43:32.114Z,18.99
2023-05-09T08:44:32.052Z,19.01
2023-05-09T08:45:32.089Z,19.05
2023-05-09T08:46:32.082Z,19.10
2023-05-09T08:47:32.080Z,19.20
2023-05-09T08:48:34.022Z,19.29
2023-05-09T08:49:32.030Z,19.42
2023-05-09T08:50:31.996Z,19.53
2023-05-09T08:51:31.970Z,19.61
2023-05-09T08:52:31.975Z,19.75
2023-05-09T08:53:31.952Z,19.86
2023-05-09T08:54:31.923Z,19.97
2023-05-09T08:55:31.965Z,19.98
2023-05-09T08:56:31.902Z,20.02
2023-05-09T08:57:31.989Z,20.10
2023-05-09T08:58:32.107Z,20.20
2023-05-09T08:59:31.880Z,20.27
2023-05-09T09:00:31.901Z,20.39
2023-05-09T09:01:31.890Z,20.47
2023-05-09T09:02:31.875Z,20.54
2023-05-09T09:03:31.853Z,20.62
2023-05-09T09:04:31.852Z,20.66
2023-05-09T09:05:41.458Z,20.64
2023-05-09T09:06:31.846Z,20.58
2023-05-09T09:07:31.791Z,20.50
2023-05-09T09:08:31.769Z,20.49
2023-05-09T09:09:31.763Z,20.50
2023-05-09T09:10:31.761Z,20.58
2023-05-09T09:11:32.211Z,20.69
2023-05-09T09:12:31.722Z,20.72
2023-05-09T09:13:31.791Z,20.79
2023-05-09T09:14:31.709Z,20.87
2023-05-09T09:15:31.711Z,20.87
2023-05-09T09:16:31.799Z,20.93
2023-05-09T09:17:31.723Z,21.01
2023-05-09T09:18:31.659Z,21.05
2023-05-09T09:19:31.671Z,21.04
2023-05-09T09:20:31.653Z,21.04
2023-05-09T09:21:31.628Z,21.05
2023-05-09T09:22:31.612Z,21.04
2023-05-09T09:23:31.610Z,21.02
2023-05-09T09:24:31.607Z,21.06
2023-05-09T09:25:31.596Z,21.11
2023-05-09T09:26:31.587Z,21.21
2023-05-09T09:27:31.567Z,21.27
2023-05-09T09:28:31.551Z,21.29
2023-05-09T09:29:31.548Z,21.29
2023-05-09T09:30:31.547Z,21.30
2023-05-09T09:31:31.578Z,21.38
2023-05-09T09:32:31.538Z,21.46
2023-05-09T09:33:31.680Z,21.53
2023-05-09T09:34:31.521Z,21.56
2023-05-09T09:35:31.473Z,21.63
2023-05-09T09:36:31.473Z,21.67
2023-05-09T09:37:31.474Z,21.78
2023-05-09T09:38:31.436Z,21.85
2023-05-09T09:39:31.424Z,21.92
2023-05-09T09:40:31.412Z,21.94
2023-05-09T09:41:31.420Z,21.99
2023-05-09T09:42:31.392Z,22.04
2023-05-09T09:43:31.382Z,22.10
2023-05-09T09:44:31.372Z,22.16
2023-05-09T09:45:31.363Z,22.23
2023-05-09T09:46:31.480Z,22.32
2023-05-09T09:47:31.460Z,22.47
2023-05-09T09:48:31.350Z,22.50
2023-05-09T09:49:31.317Z,22.47
2023-05-09T09:50:31.317Z,22.50
2023-05-09T09:51:31.309Z,22.54
2023-05-09T09:52:31.293Z,22.60
2023-05-09T09:53:31.277Z,22.59
2023-05-09T09:54:31.262Z,22.64
2023-05-09T09:55:31.244Z,22.71
2023-05-09T09:56:31.235Z,22.68
2023-05-09T09:57:31.332Z,22.74
2023-05-09T09:58:31.218Z,22.82
2023-05-09T09:59:31.208Z,22.86
2023-05-09T10:00:31.204Z,22.93
2023-05-09T10:01:31.242Z,22.99
2023-05-09T10:02:31.193Z,23.04
2023-05-09T10:03:31.177Z,22.97
2023-05-09T10:04:31.150Z,22.94
2023-05-09T10:05:31.152Z,22.99
2023-05-09T10:06:31.136Z,23.08
2023-05-09T10:07:31.115Z,23.17
2023-05-09T10:08:31.117Z,23.26
2023-05-09T10:09:31.107Z,23.19
2023-05-09T10:10:31.083Z,23.14
2023-05-09T10:11:31.079Z,23.17
2023-05-09T10:12:31.077Z,23.14
2023-05-09T10:13:31.073Z,23.19
2023-05-09T10:14:32.065Z,23.24
2023-05-09T10:15:38.502Z,23.31
2023-05-09T10:16:42.653Z,23.26
2023-05-09T10:17:31.129Z,23.26
2023-05-09T10:18:31.466Z,23.26
2023-05-09T10:19:30.983Z,23.38
2023-05-09T10:20:30.969Z,23.34
2023-05-09T10:21:30.984Z,23.34
2023-05-09T10:22:30.948Z,23.35
2023-05-09T10:23:30.961Z,23.34
2023-05-09T10:24:31.104Z,23.40
2023-05-09T10:25:30.919Z,23.53
2023-05-09T10:26:30.919Z,23.70
2023-05-09T10:27:30.924Z,23.79
2023-05-09T10:28:30.878Z,23.77
2023-05-09T10:29:30.876Z,23.85
2023-05-09T10:30:31.478Z,23.94
2023-05-09T10:31:30.904Z,23.94
2023-05-09T10:32:30.881Z,24.02
2023-05-09T10:33:30.847Z,24.13
2023-05-09T10:34:30.823Z,24.19
2023-05-09T10:35:30.797Z,24.19
2023-05-09T10:36:30.793Z,24.24
2023-05-09T10:37:31.636Z,24.17
2023-05-09T10:38:30.789Z,24.20
2023-05-09T10:39:30.760Z,24.22
2023-05-09T10:40:30.745Z,24.24
2023-05-09T10:41:30.731Z,24.12
2023-05-09T10:42:30.726Z,24.10
2023-05-09T10:43:32.078Z,24.10
2023-05-09T10:44:30.703Z,24.14
2023-05-09T10:45:30.695Z,24.17
2023-05-09T10:46:30.715Z,24.16
2023-05-09T10:47:30.737Z,24.22
2023-05-09T10:48:30.685Z,24.26
2023-05-09T10:49:30.651Z,24.29
2023-05-09T10:50:30.646Z,24.35
2023-05-09T10:51:30.629Z,24.39
2023-05-09T10:52:30.612Z,24.41
2023-05-09T10:53:30.626Z,24.52
2023-05-09T10:54:31.125Z,24.52
2023-05-09T10:55:30.587Z,24.56
2023-05-09T10:56:30.597Z,24.49
2023-05-09T10:57:30.686Z,24.50
2023-05-09T10:58:30.579Z,24.52
2023-05-09T10:59:30.537Z,24.56
2023-05-09T11:00:30.530Z,24.63
2023-05-09T11:01:30.537Z,24.64
2023-05-09T11:02:30.512Z,24.42
2023-05-09T11:03:30.625Z,24.32
2023-05-09T11:04:30.489Z,24.14
2023-05-09T11:05:30.477Z,24.16
2023-05-09T11:06:30.458Z,24.12
2023-05-09T11:07:30.463Z,24.12
2023-05-09T11:08:30.456Z,24.08
2023-05-09T11:09:30.433Z,24.02
2023-05-09T11:10:30.419Z,23.98
2023-05-09T11:11:30.414Z,23.85
2023-05-09T11:12:30.402Z,23.87
2023-05-09T11:13:30.483Z,23.90
2023-05-09T11:14:30.374Z,23.92
2023-05-09T11:15:30.374Z,23.86
2023-05-09T11:16:30.465Z,23.87
2023-05-09T11:17:30.408Z,23.83
2023-05-09T11:18:30.348Z,23.90
2023-05-09T11:19:30.321Z,24.00
2023-05-09T11:20:30.309Z,24.12
2023-05-09T11:21:30.303Z,24.22
2023-05-09T11:22:30.298Z,24.34
2023-05-09T11:23:30.292Z,24.34
2023-05-09T11:24:30.285Z,24.38
2023-05-09T11:25:30.263Z,24.50
2023-05-09T11:26:30.253Z,24.57
2023-05-09T11:27:30.235Z,24.68
2023-05-09T11:28:30.243Z,24.77
2023-05-09T11:29:30.211Z,24.87
2023-05-09T11:30:30.205Z,24.87
2023-05-09T11:31:30.243Z,24.88
2023-05-09T11:32:30.234Z,24.88
2023-05-09T11:33:30.250Z,24.73
2023-05-09T11:34:30.171Z,24.69
2023-05-09T11:35:30.178Z,24.67
2023-05-09T11:36:30.145Z,24.60
2023-05-09T11:37:30.134Z,24.57
2023-05-09T11:38:30.138Z,24.52
2023-05-09T11:39:30.117Z,24.52
2023-05-09T11:40:30.093Z,24.59
2023-05-09T11:41:30.094Z,24.61
2023-05-09T11:42:30.076Z,24.61
2023-05-09T11:43:30.072Z,24.59
2023-05-09T11:44:30.053Z,24.67
2023-05-09T11:45:30.050Z,24.71
2023-05-09T11:46:30.083Z,24.69
2023-05-09T11:47:30.109Z,24.79
2023-05-09T11:48:30.031Z,24.91
2023-05-09T11:49:29.990Z,25.01
2023-05-09T11:50:29.999Z,24.85
2023-05-09T11:51:29.978Z,24.77
2023-05-09T11:52:29.985Z,24.80
2023-05-09T11:53:29.972Z,24.90
2023-05-09T11:54:29.949Z,25.00
2023-05-09T11:55:30.006Z,25.10
2023-05-09T11:56:29.930Z,25.15
2023-05-09T11:57:29.913Z,25.19
2023-05-09T11:58:29.936Z,25.16
2023-05-09T11:59:29.883Z,25.16
2023-05-09T12:00:30.403Z,25.19
2023-05-09T12:01:29.859Z,25.30
2023-05-09T12:02:29.906Z,25.38
2023-05-09T12:03:29.997Z,25.44
2023-05-09T12:04:29.906Z,25.46
2023-05-09T12:05:29.828Z,25.44
2023-05-09T12:06:29.808Z,25.53
2023-05-09T12:07:29.802Z,25.62
2023-05-09T12:08:29.809Z,25.68
2023-05-09T12:09:29.777Z,25.79
2023-05-09T12:10:29.766Z,25.89
2023-05-09T12:11:29.754Z,25.89
2023-05-09T12:12:29.740Z,25.86
2023-05-09T12:13:29.924Z,25.83
2023-05-09T12:14:29.737Z,25.75
2023-05-09T12:15:29.709Z,25.75
2023-05-09T12:16:29.764Z,25.84
2023-05-09T12:17:29.715Z,25.83
2023-05-09T12:18:29.700Z,25.75
2023-05-09T12:19:29.679Z,25.75
2023-05-09T12:20:29.661Z,25.74
2023-05-09T12:21:29.656Z,25.74
2023-05-09T12:22:29.635Z,25.74
2023-05-09T12:23:29.636Z,25.68
2023-05-09T12:24:29.623Z,25.71
2023-05-09T12:25:29.604Z,25.79
2023-05-09T12:26:29.599Z,25.86
2023-05-09T12:27:29.576Z,25.94
2023-05-09T12:28:29.584Z,25.98
2023-05-09T12:29:29.550Z,25.91
2023-05-09T12:30:29.542Z,25.90
2023-05-09T12:31:29.590Z,25.91
2023-05-09T12:32:29.554Z,25.91
2023-05-09T12:33:29.529Z,25.97
2023-05-09T12:34:29.509Z,25.94
2023-05-09T12:35:29.489Z,25.99
2023-05-09T12:36:29.486Z,26.01
2023-05-09T12:37:29.467Z,25.97
2023-05-09T12:38:29.479Z,25.97
2023-05-09T12:39:29.441Z,26.01
2023-05-09T12:40:29.467Z,26.04
2023-05-09T12:41:37.133Z,26.01
2023-05-09T12:42:29.422Z,26.06
2023-05-09T12:43:29.415Z,26.17
2023-05-09T12:44:29.995Z,26.18
2023-05-09T12:45:29.382Z,26.11
2023-05-09T12:46:29.473Z,26.05
2023-05-09T12:47:29.454Z,26.01
2023-05-09T12:48:29.387Z,25.72
2023-05-09T12:49:29.346Z,25.61
2023-05-09T12:50:29.326Z,25.46
2023-05-09T12:51:29.320Z,25.35
2023-05-09T12:52:29.305Z,25.43
2023-05-09T12:53:29.321Z,25.50
2023-05-09T12:54:29.300Z,25.42
2023-05-09T12:55:29.305Z,25.46